createdAt,value
2022-10-31T00:02:08.581Z,101632.72
2022-10-31T00:04:39.235Z,101625.69
2022-10-31T00:07:09.605Z,101632.81
2022-10-31T00:09:39.897Z,101627.56
2022-10-31T00:12:10.275Z,101623.13
2022-10-31T00:14:42.139Z,101620.38
2022-10-31T00:17:12.027Z,101620.38
2022-10-31T00:19:42.397Z,101616.78
2022-10-31T00:22:12.588Z,101624.84
2022-10-31T00:24:43.418Z,101619.44
2022-10-31T00:27:13.584Z,101625.53
2022-10-31T00:29:45.328Z,101625.53
2022-10-31T00:32:15.790Z,101623.78
2022-10-31T00:34:46.178Z,101619.38
2022-10-31T00:37:16.666Z,101617.75
2022-10-31T00:39:50.287Z,101623.84
2022-10-31T00:42:20.425Z,101618.53
2022-10-31T00:44:52.187Z,101624.53
2022-10-31T00:47:25.015Z,101633.22
2022-10-31T00:49:55.306Z,101630.56
2022-10-31T00:52:25.546Z,101626.09
2022-10-31T00:54:55.846Z,101631.22
2022-10-31T00:57:26.017Z,101627.69
2022-10-31T00:59:58.016Z,101626.72
2022-10-31T01:02:28.228Z,101624.06
2022-10-31T01:04:58.717Z,101630.38
2022-10-31T01:07:28.872Z,101637.41
2022-10-31T01:09:59.388Z,101637.47
2022-10-31T01:12:30.150Z,101644.50
2022-10-31T01:15:02.629Z,101635.63
2022-10-31T01:17:33.654Z,101642.53
2022-10-31T01:20:04.674Z,101638.13
2022-10-31T01:22:36.816Z,101653.06
2022-10-31T01:25:08.635Z,101645.28
2022-10-31T01:27:38.440Z,101641.88
2022-10-31T01:30:13.789Z,101646.38
2022-10-31T01:32:43.859Z,101638.47
2022-10-31T01:35:14.158Z,101640.38
2022-10-31T01:37:44.150Z,101637.78
2022-10-31T01:40:14.599Z,101644.88
2022-10-31T01:42:44.779Z,101634.44
2022-10-31T01:45:18.010Z,101641.53
2022-10-31T01:47:50.027Z,101649.56
2022-10-31T01:50:31.238Z,101645.28
2022-10-31T01:53:03.109Z,101641.00
2022-10-31T01:55:38.088Z,101631.47
2022-10-31T01:58:12.701Z,101627.19
2022-10-31T02:00:49.780Z,101587.97
2022-10-31T02:03:21.470Z,101647.47
2022-10-31T02:05:53.210Z,101646.69
2022-10-31T02:08:30.101Z,101653.69
2022-10-31T02:11:03.490Z,101657.16
2022-10-31T02:13:33.809Z,101655.34
2022-10-31T02:16:05.861Z,101646.66
2022-10-31T02:18:37.218Z,101649.41
2022-10-31T02:21:18.128Z,101639.97
2022-10-31T02:24:24.437Z,101640.91
2022-10-31T02:27:10.737Z,101637.56
2022-10-31T02:30:09.839Z,101634.06
2022-10-31T02:33:08.849Z,101644.72
2022-10-31T02:35:51.402Z,101638.63
2022-10-31T02:38:31.269Z,101639.53
2022-10-31T02:41:10.319Z,101646.63
2022-10-31T02:43:55.509Z,101645.84
2022-10-31T02:46:33.869Z,101660.84
2022-10-31T02:49:10.880Z,101656.47
2022-10-31T02:51:43.128Z,101660.84
2022-10-31T02:54:26.929Z,101663.47
2022-10-31T02:57:01.890Z,101664.44
2022-10-31T02:59:35.588Z,101672.41
2022-10-31T03:02:20.448Z,101666.31
2022-10-31T03:05:21.879Z,101667.28
2022-10-31T03:08:02.617Z,101667.38
2022-10-31T03:10:43.466Z,101674.41
2022-10-31T03:16:08.299Z,101665.63
2022-10-31T03:18:43.768Z,101669.22
2022-10-31T03:21:20.291Z,101670.16
2022-10-31T03:23:52.139Z,101673.72
2022-10-31T03:26:26.722Z,101677.31
2022-10-31T03:29:02.280Z,101681.78
2022-10-31T03:31:36.331Z,101673.88
2022-10-31T03:34:08.892Z,101675.63
2022-10-31T03:36:43.079Z,101680.03
2022-10-31T03:39:17.221Z,101684.44
2022-10-31T03:41:51.119Z,101680.91
2022-10-31T03:44:24.940Z,101677.38
2022-10-31T03:47:03.297Z,101679.94
2022-10-31T03:49:35.401Z,101676.34
2022-10-31T03:52:15.330Z,101677.16
2022-10-31T03:54:47.828Z,101676.19
2022-10-31T03:57:25.881Z,101675.22
2022-10-31T04:00:02.839Z,101674.34
2022-10-31T04:02:38.082Z,101670.78
2022-10-31T04:05:10.960Z,101669.03
2022-10-31T04:07:47.839Z,101678.72
2022-10-31T04:10:19.679Z,101683.13
2022-10-31T04:12:56.276Z,101675.22
2022-10-31T04:15:31.020Z,101674.34
2022-10-31T04:18:04.891Z,101670.78
2022-10-31T04:20:37.050Z,101672.56
2022-10-31T04:23:14.778Z,101675.16
2022-10-31T04:25:46.880Z,101666.41
2022-10-31T04:30:53.132Z,101667.22
2022-10-31T04:33:23.589Z,101662.88
2022-10-31T04:35:54.470Z,101654.16
2022-10-31T04:38:26.191Z,101655.03
2022-10-31T04:40:56.010Z,101649.75
2022-10-31T04:43:45.209Z,101648.88
2022-10-31T04:46:17.669Z,101649.75
2022-10-31T04:48:48.034Z,101659.41
2022-10-31T04:51:19.167Z,101653.28
2022-10-31T04:53:51.069Z,101658.56
2022-10-31T04:56:44.647Z,101652.47
2022-10-31T04:59:21.502Z,101660.38
2022-10-31T05:01:57.452Z,101657.78
2022-10-31T05:04:40.361Z,101652.50
2022-10-31T05:07:11.169Z,101657.78
2022-10-31T05:09:42.959Z,101656.94
2022-10-31T05:12:13.233Z,101649.91
2022-10-31T05:15:03.970Z,101657.03
2022-10-31T05:17:53.473Z,101659.72
2022-10-31T05:20:47.678Z,101657.13
2022-10-31T05:23:30.608Z,101654.53
2022-10-31T05:26:02.360Z,101649.25
2022-10-31T05:28:32.549Z,101650.16
2022-10-31T05:31:03.422Z,101642.25
2022-10-31T05:33:34.628Z,101644.03
2022-10-31T05:36:43.628Z,101641.41
2022-10-31T05:39:20.818Z,101639.72
2022-10-31T05:41:55.408Z,101643.31
2022-10-31T05:44:29.619Z,101643.38
2022-10-31T05:47:26.920Z,101640.00
2022-10-31T05:50:15.752Z,101645.41
2022-10-31T05:52:57.100Z,101642.84
2022-10-31T05:55:38.128Z,101642.84
2022-10-31T05:58:23.976Z,101648.19
2022-10-31T06:01:03.618Z,101653.53
2022-10-31T06:03:34.330Z,101652.66
2022-10-31T06:06:07.029Z,101665.91
2022-10-31T06:08:41.209Z,101663.25
2022-10-31T06:11:17.450Z,101664.13
2022-10-31T06:14:15.804Z,101659.69
2022-10-31T06:16:54.590Z,101669.44
2022-10-31T06:19:47.500Z,101664.13
2022-10-31T06:22:23.269Z,101668.56
2022-10-31T06:24:54.033Z,101668.53
2022-10-31T06:27:37.742Z,101663.22
2022-10-31T06:30:17.007Z,101659.72
2022-10-31T06:32:48.868Z,101664.13
2022-10-31T06:35:19.789Z,101660.66
2022-10-31T06:37:55.238Z,101659.78
2022-10-31T06:40:39.270Z,101653.63
2022-10-31T06:43:29.790Z,101658.09
2022-10-31T06:46:21.909Z,101661.66
2022-10-31T06:49:15.527Z,101657.31
2022-10-31T06:51:53.619Z,101671.44
2022-10-31T06:54:23.789Z,101671.44
2022-10-31T06:56:54.109Z,101677.66
2022-10-31T06:59:25.488Z,101677.69
2022-10-31T07:02:11.705Z,101676.81
2022-10-31T07:04:43.709Z,101684.81
2022-10-31T07:07:17.520Z,101676.03
2022-10-31T07:09:48.958Z,101684.88
2022-10-31T07:12:21.721Z,101676.91
2022-10-31T07:14:59.479Z,101674.31
2022-10-31T07:17:31.979Z,101672.56
2022-10-31T07:20:04.097Z,101671.72
2022-10-31T07:22:38.489Z,101681.47
2022-10-31T07:25:12.047Z,101678.84
2022-10-31T07:28:18.058Z,101682.44
2022-10-31T07:30:53.669Z,101684.22
2022-10-31T07:33:28.312Z,101684.25
2022-10-31T07:36:18.580Z,101690.47
2022-10-31T07:38:52.248Z,101686.09
2022-10-31T07:41:23.450Z,101686.13
2022-10-31T07:46:47.968Z,101683.56
2022-10-31T07:49:43.139Z,101681.88
2022-10-31T07:52:33.731Z,101688.97
2022-10-31T07:55:04.880Z,101691.66
2022-10-31T07:57:35.669Z,101698.81
2022-10-31T08:00:06.950Z,101699.72
2022-10-31T08:02:45.385Z,101695.31
2022-10-31T08:05:54.405Z,101692.66
2022-10-31T08:08:46.515Z,101691.81
2022-10-31T08:11:17.856Z,101690.91
2022-10-31T08:13:49.340Z,101691.81
2022-10-31T08:16:20.428Z,101687.41
2022-10-31T08:19:09.290Z,101679.44
2022-10-31T08:21:44.491Z,101681.22
2022-10-31T08:24:15.351Z,101686.53
2022-10-31T08:26:48.394Z,101683.88
2022-10-31T08:29:22.775Z,101690.97
2022-10-31T08:31:53.690Z,101686.53
2022-10-31T08:35:03.723Z,101690.97
2022-10-31T08:37:57.260Z,101686.50
2022-10-31T08:40:31.926Z,101682.09
2022-10-31T08:43:04.549Z,101685.63
2022-10-31T08:45:36.441Z,101681.19
2022-10-31T08:48:12.490Z,101695.38
2022-10-31T08:50:43.460Z,101702.44
2022-10-31T08:53:17.612Z,101704.22
2022-10-31T08:55:53.100Z,101706.84
2022-10-31T08:58:28.790Z,101701.53
2022-10-31T09:01:05.129Z,101703.28
2022-10-31T09:03:36.040Z,101708.59
2022-10-31T09:06:10.071Z,101713.03
2022-10-31T09:08:42.711Z,101714.78
2022-10-31T09:11:12.858Z,101709.44
2022-10-31T09:14:01.970Z,101703.25
2022-10-31T09:16:50.590Z,101695.25
2022-10-31T09:19:25.880Z,101699.66
2022-10-31T09:21:56.619Z,101696.13
2022-10-31T09:24:28.541Z,101701.44
2022-10-31T09:26:58.925Z,101697.88
2022-10-31T09:29:32.137Z,101701.41
2022-10-31T09:32:04.231Z,101712.91
2022-10-31T09:34:38.267Z,101710.28
2022-10-31T09:37:17.929Z,101713.81
2022-10-31T09:39:51.006Z,101710.25
2022-10-31T09:42:54.151Z,101696.91
2022-10-31T09:45:35.071Z,101702.22
2022-10-31T09:48:44.230Z,101700.44
2022-10-31T09:51:28.769Z,101709.28
2022-10-31T09:54:21.241Z,101706.63
2022-10-31T09:56:53.657Z,101715.50
2022-10-31T09:59:32.707Z,101718.16
2022-10-31T10:02:07.667Z,101719.94
2022-10-31T10:04:45.897Z,101731.44
2022-10-31T10:07:39.597Z,101730.56
2022-10-31T10:10:20.386Z,101733.22
2022-10-31T10:13:19.354Z,101722.56
2022-10-31T10:16:26.383Z,101723.47
2022-10-31T10:19:09.178Z,101714.59
2022-10-31T10:21:49.178Z,101726.09
2022-10-31T10:24:36.608Z,101729.66
2022-10-31T10:27:22.332Z,101721.72
2022-10-31T10:30:03.592Z,101720.78
2022-10-31T10:32:40.752Z,101719.94
2022-10-31T10:35:22.217Z,101716.38
2022-10-31T10:37:55.411Z,101718.13
2022-10-31T10:40:29.243Z,101711.88
2022-10-31T10:43:24.746Z,101705.66
2022-10-31T10:46:32.810Z,101709.19
2022-10-31T10:49:19.051Z,101710.94
2022-10-31T10:55:07.439Z,101710.91
2022-10-31T10:57:55.546Z,101710.03
2022-10-31T11:00:27.500Z,101704.66
2022-10-31T11:02:59.969Z,101709.06
2022-10-31T11:05:38.171Z,101706.41
2022-10-31T11:08:10.620Z,101708.19
2022-10-31T11:10:41.409Z,101701.94
2022-10-31T11:13:25.574Z,101714.34
2022-10-31T11:16:03.329Z,101705.41
2022-10-31T11:18:37.907Z,101703.63
2022-10-31T11:21:08.660Z,101710.72
2022-10-31T11:23:39.904Z,101702.72
2022-10-31T11:26:22.421Z,101704.50
2022-10-31T11:29:05.159Z,101693.81
2022-10-31T11:31:39.606Z,101699.13
2022-10-31T11:34:22.272Z,101712.44
2022-10-31T11:36:52.862Z,101713.41
2022-10-31T11:39:26.700Z,101707.19
2022-10-31T11:42:07.698Z,101714.28
2022-10-31T11:44:47.559Z,101721.38
2022-10-31T11:47:20.629Z,101718.69
2022-10-31T11:49:53.459Z,101718.69
2022-10-31T11:52:31.092Z,101717.78
2022-10-31T11:55:04.660Z,101718.69
2022-10-31T11:57:45.866Z,101717.81
2022-10-31T12:00:26.039Z,101719.56
2022-10-31T12:03:15.311Z,101724.91
2022-10-31T12:05:48.739Z,101720.44
2022-10-31T12:08:20.366Z,101724.88
2022-10-31T12:11:05.622Z,101722.25
2022-10-31T12:13:40.886Z,101716.91
2022-10-31T12:16:18.732Z,101719.56
2022-10-31T12:19:01.295Z,101712.44
2022-10-31T12:21:54.276Z,101713.31
2022-10-31T12:25:07.549Z,101721.31
2022-10-31T12:27:58.900Z,101711.56
2022-10-31T12:30:37.458Z,101721.34
2022-10-31T12:33:29.153Z,101717.84
2022-10-31T12:36:15.331Z,101718.75
2022-10-31T12:39:23.990Z,101722.31
2022-10-31T12:41:58.690Z,101719.66
2022-10-31T12:44:50.809Z,101665.66
2022-10-31T12:47:56.598Z,101727.66
2022-10-31T12:50:37.649Z,101724.09
2022-10-31T12:53:21.982Z,101715.19
2022-10-31T12:56:03.088Z,101724.06
2022-10-31T12:58:38.241Z,101722.31
2022-10-31T13:01:15.106Z,101717.84
2022-10-31T13:03:51.479Z,101713.41
2022-10-31T13:06:26.949Z,101712.50
2022-10-31T13:09:00.851Z,101706.25
2022-10-31T13:11:38.578Z,101708.03
2022-10-31T13:14:15.091Z,101705.38
2022-10-31T13:16:49.440Z,101708.03
2022-10-31T13:19:24.441Z,101709.81
2022-10-31T13:22:03.355Z,101703.56
2022-10-31T13:24:39.029Z,101701.81
2022-10-31T13:27:21.729Z,101707.13
2022-10-31T13:30:03.582Z,101707.13
2022-10-31T13:32:44.104Z,101712.44
2022-10-31T13:35:22.235Z,101697.34
2022-10-31T13:37:59.555Z,101703.56
2022-10-31T13:40:40.547Z,101705.34
2022-10-31T13:43:22.323Z,101708.91
2022-10-31T13:45:53.219Z,101702.72
2022-10-31T13:48:44.088Z,101703.66
2022-10-31T13:51:14.917Z,101700.06
2022-10-31T13:54:00.989Z,101701.00
2022-10-31T13:56:35.051Z,101715.19
2022-10-31T13:59:26.616Z,101706.31
2022-10-31T14:02:02.533Z,101710.78
2022-10-31T14:04:40.737Z,101715.19
2022-10-31T14:07:13.922Z,101713.44
2022-10-31T14:09:59.092Z,101712.56
2022-10-31T14:12:34.403Z,101714.34
2022-10-31T14:15:16.984Z,101709.94
2022-10-31T14:17:52.250Z,101703.72
2022-10-31T14:20:43.223Z,101707.22
2022-10-31T14:23:44.053Z,101716.13
2022-10-31T14:26:35.655Z,101711.72
2022-10-31T14:29:27.469Z,101718.84
2022-10-31T14:32:12.521Z,101721.50
2022-10-31T14:34:45.314Z,101719.72
2022-10-31T14:37:28.112Z,101712.66
2022-10-31T14:40:21.679Z,101718.88
2022-10-31T14:43:07.372Z,101709.06
2022-10-31T14:45:47.444Z,101705.56
2022-10-31T14:48:36.964Z,101712.66
2022-10-31T14:51:16.222Z,101708.22
2022-10-31T14:53:51.373Z,101711.78
2022-10-31T14:56:27.205Z,101712.69
2022-10-31T14:59:00.475Z,101710.03
2022-10-31T15:01:32.904Z,101708.28
2022-10-31T15:04:23.236Z,101705.59
2022-10-31T15:07:02.613Z,101710.97
2022-10-31T15:09:34.851Z,101711.84
2022-10-31T15:12:24.112Z,101711.00
2022-10-31T15:14:55.384Z,101712.78
2022-10-31T15:17:26.903Z,101702.09
2022-10-31T15:20:01.374Z,101703.00
2022-10-31T15:22:34.302Z,101706.56
2022-10-31T15:25:06.234Z,101705.69
2022-10-31T15:27:36.742Z,101710.13
2022-10-31T15:30:19.215Z,101715.44
2022-10-31T15:32:57.550Z,101703.91
2022-10-31T15:35:31.846Z,101722.56
2022-10-31T15:38:03.050Z,101722.56
2022-10-31T15:40:34.268Z,101717.25
2022-10-31T15:43:08.113Z,101715.47
2022-10-31T15:45:38.663Z,101727.91
2022-10-31T15:48:19.453Z,101727.03
2022-10-31T15:50:54.744Z,101727.03
2022-10-31T15:53:29.168Z,101725.22
2022-10-31T15:56:03.397Z,101719.03
2022-10-31T15:58:35.355Z,101717.25
2022-10-31T16:01:08.220Z,101721.72
2022-10-31T16:03:38.576Z,101732.34
2022-10-31T16:06:23.877Z,101727.88
2022-10-31T16:08:54.377Z,101733.22
2022-10-31T16:11:30.484Z,101727.88
2022-10-31T16:14:03.298Z,101726.13
2022-10-31T16:16:36.387Z,101727.00
2022-10-31T16:19:16.945Z,101730.56
2022-10-31T16:21:51.476Z,101735.03
2022-10-31T16:24:25.875Z,101724.38
2022-10-31T16:27:05.745Z,101727.94
2022-10-31T16:29:45.218Z,101727.03
2022-10-31T16:32:30.485Z,101728.81
2022-10-31T16:35:19.526Z,101724.38
2022-10-31T16:37:51.507Z,101725.25
2022-10-31T16:40:21.870Z,101713.72
2022-10-31T16:42:52.851Z,101716.38
2022-10-31T16:45:24.539Z,101720.84
2022-10-31T16:47:55.355Z,101719.06
2022-10-31T16:50:28.214Z,101721.75
2022-10-31T16:53:13.291Z,101705.78
2022-10-31T16:55:48.239Z,101723.53
2022-10-31T16:58:25.256Z,101721.75
2022-10-31T17:00:56.202Z,101723.53
2022-10-31T17:03:35.188Z,101729.72
2022-10-31T17:06:05.320Z,101720.84
2022-10-31T17:08:38.006Z,101718.19
2022-10-31T17:11:11.225Z,101719.97
2022-10-31T17:13:42.091Z,101724.41
2022-10-31T17:16:14.789Z,101719.97
2022-10-31T17:18:48.146Z,101716.41
2022-10-31T17:21:25.597Z,101724.41
2022-10-31T17:23:57.989Z,101721.75
2022-10-31T17:26:28.115Z,101710.25
2022-10-31T17:29:00.356Z,101712.88
2022-10-31T17:31:32.478Z,101715.53
2022-10-31T17:34:04.287Z,101719.97
2022-10-31T17:36:34.839Z,101720.00
2022-10-31T17:39:10.426Z,101714.66
2022-10-31T17:41:40.566Z,101716.44
2022-10-31T17:44:13.070Z,101716.47
2022-10-31T17:46:43.676Z,101717.34
2022-10-31T17:49:14.775Z,101714.69
2022-10-31T17:51:45.054Z,101665.13
2022-10-31T17:54:23.283Z,101712.91
2022-10-31T17:56:59.032Z,101712.91
2022-10-31T17:59:31.099Z,101718.25
2022-10-31T18:02:01.977Z,101712.03
2022-10-31T18:04:33.506Z,101720.91
2022-10-31T18:07:03.668Z,101727.09
2022-10-31T18:09:35.781Z,101720.91
2022-10-31T18:12:06.564Z,101723.56
2022-10-31T18:14:37.117Z,101716.47
2022-10-31T18:17:07.246Z,101715.59
2022-10-31T18:19:38.196Z,101708.50
2022-10-31T18:22:08.854Z,101718.25
2022-10-31T18:24:41.053Z,101720.03
2022-10-31T18:27:11.173Z,101712.97
2022-10-31T18:29:41.465Z,101722.69
2022-10-31T18:32:11.517Z,101717.38
2022-10-31T18:34:42.057Z,101713.81
2022-10-31T18:37:12.300Z,101721.81
2022-10-31T18:39:45.736Z,101723.59
2022-10-31T18:42:16.086Z,101726.25
2022-10-31T18:44:47.099Z,101731.56
2022-10-31T18:47:17.968Z,101729.81
2022-10-31T18:49:48.613Z,101723.59
2022-10-31T18:52:19.205Z,101732.47
2022-10-31T18:54:51.296Z,101720.06
2022-10-31T18:57:21.419Z,101730.69
2022-10-31T18:59:52.834Z,101718.25
2022-10-31T19:02:26.420Z,101720.94
2022-10-31T19:04:56.916Z,101734.22
2022-10-31T19:07:27.527Z,101718.25
2022-10-31T19:09:59.763Z,101714.69
2022-10-31T19:12:29.827Z,101720.03
2022-10-31T19:15:00.495Z,101710.28
2022-10-31T19:17:31.300Z,101716.50
2022-10-31T19:20:02.114Z,101712.03
2022-10-31T19:22:34.152Z,101712.03
2022-10-31T19:25:10.507Z,101711.16
2022-10-31T19:27:41.458Z,101722.69
2022-10-31T19:30:13.845Z,101713.81
2022-10-31T19:32:43.886Z,101711.19
2022-10-31T19:35:14.297Z,101704.06
2022-10-31T19:37:44.450Z,101704.97
2022-10-31T19:40:17.597Z,101704.06
2022-10-31T19:42:47.798Z,101700.53
2022-10-31T19:45:18.469Z,101703.22
2022-10-31T19:47:51.592Z,101711.19
2022-10-31T19:50:22.535Z,101702.34
2022-10-31T19:53:02.748Z,101703.22
2022-10-31T19:55:36.224Z,101715.63
2022-10-31T19:58:06.307Z,101702.31
2022-10-31T20:00:38.932Z,101708.53
2022-10-31T20:03:10.085Z,101710.31
2022-10-31T20:05:42.984Z,101706.75
2022-10-31T20:08:17.147Z,101704.09
2022-10-31T20:11:00.811Z,101701.47
2022-10-31T20:13:32.985Z,101702.31
2022-10-31T20:16:05.925Z,101697.00
2022-10-31T20:18:37.477Z,101689.91
2022-10-31T20:21:09.870Z,101695.22
2022-10-31T20:23:41.306Z,101696.13
2022-10-31T20:26:15.786Z,101689.91
2022-10-31T20:28:46.757Z,101681.06
2022-10-31T20:31:19.335Z,101691.72
2022-10-31T20:33:50.972Z,101690.81
2022-10-31T20:36:23.275Z,101689.94
2022-10-31T20:38:54.416Z,101700.56
2022-10-31T20:41:26.781Z,101699.66
2022-10-31T20:43:59.245Z,101689.91
2022-10-31T20:46:30.957Z,101690.81
2022-10-31T20:49:09.453Z,101682.81
2022-10-31T20:51:41.024Z,101697.00
2022-10-31T20:54:17.872Z,101683.69
2022-10-31T20:56:50.330Z,101686.34
2022-10-31T20:59:20.848Z,101678.38
2022-10-31T21:04:36.964Z,101689.91
2022-10-31T21:07:07.395Z,101689.94
2022-10-31T21:09:40.558Z,101678.41
2022-10-31T21:12:15.390Z,101673.97
2022-10-31T21:14:48.605Z,101674.84
2022-10-31T21:17:19.467Z,101676.66
2022-10-31T21:19:50.595Z,101672.22
2022-10-31T21:22:26.369Z,101681.97
2022-10-31T21:24:58.177Z,101679.31
2022-10-31T21:27:32.230Z,101682.88
2022-10-31T21:30:03.275Z,101678.44
2022-10-31T21:32:37.886Z,101675.78
2022-10-31T21:35:09.583Z,101673.13
2022-10-31T21:37:39.995Z,101675.78
2022-10-31T21:40:11.327Z,101675.78
2022-10-31T21:42:46.566Z,101674.91
2022-10-31T21:45:16.911Z,101667.81
2022-10-31T21:47:48.773Z,101669.56
2022-10-31T21:50:20.894Z,101676.66
2022-10-31T21:52:52.839Z,101671.34
2022-10-31T21:55:21.495Z,101667.78
2022-10-31T21:57:54.026Z,101666.91
2022-10-31T22:00:25.109Z,101671.34
2022-10-31T22:02:57.773Z,101668.69
2022-10-31T22:05:28.326Z,101666.03
2022-10-31T22:07:59.583Z,101671.31
2022-10-31T22:10:30.054Z,101671.34
2022-10-31T22:13:02.595Z,101664.25
2022-10-31T22:15:33.129Z,101662.50
2022-10-31T22:18:07.013Z,101666.91
2022-10-31T22:20:37.045Z,101663.38
2022-10-31T22:23:09.777Z,101669.56
2022-10-31T22:25:39.944Z,101663.38
2022-10-31T22:28:13.886Z,101667.81
2022-10-31T22:30:44.524Z,101663.34
2022-10-31T22:33:14.977Z,101666.91
2022-10-31T22:35:45.236Z,101667.81
2022-10-31T22:38:15.577Z,101666.03
2022-10-31T22:40:45.657Z,101654.50
2022-10-31T22:43:17.545Z,101656.25
2022-10-31T22:46:00.706Z,101661.59
2022-10-31T22:48:31.689Z,101654.50
2022-10-31T22:51:07.184Z,101663.38
2022-10-31T22:53:39.048Z,101664.25
2022-10-31T22:56:09.585Z,101660.69
2022-10-31T22:58:41.544Z,101664.25
2022-10-31T23:01:13.504Z,101651.84
2022-10-31T23:03:44.826Z,101661.59
2022-10-31T23:06:17.167Z,101656.28
2022-10-31T23:08:48.705Z,101650.06
2022-10-31T23:11:21.376Z,101650.94
2022-10-31T23:14:09.323Z,101654.50
2022-10-31T23:16:42.958Z,101651.84
2022-10-31T23:19:15.016Z,101650.06
2022-10-31T23:22:02.786Z,101651.84
2022-10-31T23:24:37.025Z,101647.41
2022-10-31T23:27:09.959Z,101649.19
2022-10-31T23:29:47.337Z,101658.06
2022-10-31T23:32:22.536Z,101657.19
2022-10-31T23:34:54.762Z,101652.75
2022-10-31T23:37:26.756Z,101657.19
2022-10-31T23:39:57.429Z,101658.06
2022-10-31T23:42:28.766Z,101655.41
2022-10-31T23:45:00.607Z,101654.50
2022-10-31T23:47:32.296Z,101658.06
2022-10-31T23:50:02.594Z,101658.97
2022-10-31T23:52:32.685Z,101664.31
2022-10-31T23:55:03.085Z,101660.75
2022-10-31T23:57:33.076Z,101658.97
